Time;durP1;ratioP1;P1;durP2;ratioP2;P2;SDS_P1;SDS_P2;PMS_P1;PMS_P2;Temp;Humidity;BMP_temperature;BMP_pressure;BME280_temperature;BME280_humidity;BME280_pressure;Samples;Min_cycle;Max_cycle;Signal;HPM_P1;HPM_P2
2022/12/18 00:14:14;;;;;;;14.02;7.97;;;;;;;-4.63;73.43;101774.56;30502329;28;96730;-69
2022/12/18 00:29:15;;;;;;;22.35;10.57;;;;;;;-4.72;73.59;101786.00;30500913;28;96559;-69
2022/12/18 00:44:18;;;;;;;22.10;10.30;;;;;;;-4.83;72.99;101820.03;30500427;28;96631;-69
2022/12/18 00:59:18;;;;;;;23.63;10.43;;;;;;;-4.74;73.68;101833.75;30498788;28;96968;-71
2022/12/18 01:14:19;;;;;;;20.77;9.75;;;;;;;-4.84;74.29;101857.34;30496027;28;96754;-70
2022/12/18 01:29:19;;;;;;;16.20;9.48;;;;;;;-4.82;73.63;101868.56;30496579;28;97352;-69
2022/12/18 01:44:55;;;;;;;18.33;9.20;;;;;;;-4.76;74.14;101873.66;30494890;28;96730;-67
2022/12/18 02:00:01;;;;;;;15.98;8.02;;;;;;;-4.68;74.33;101877.84;30493629;28;96663;-68
2022/12/18 02:15:38;;;;;;;22.48;9.73;;;;;;;-4.67;73.69;101882.16;30491824;28;97505;-65
2022/12/18 02:30:41;;;;;;;27.63;11.32;;;;;;;-4.97;73.96;101906.09;30512526;28;96653;-65
2022/12/18 02:45:55;;;;;;;21.88;10.43;;;;;;;-5.01;74.09;101919.19;30511167;28;96838;-66
2022/12/18 03:01:06;;;;;;;20.57;7.53;;;;;;;-5.06;74.55;101928.81;30510535;28;96677;-67
2022/12/18 03:16:11;;;;;;;21.35;6.50;;;;;;;-4.98;74.25;101919.97;30508164;28;97164;-69
2022/12/18 03:31:14;;;;;;;20.48;10.38;;;;;;;-4.90;74.78;101932.00;30506373;28;96721;-69
2022/12/18 03:46:33;;;;;;;14.23;8.10;;;;;;;-4.95;74.52;101945.94;30505681;28;96816;-70
2022/12/18 04:01:38;;;;;;;20.80;9.75;;;;;;;-5.11;74.19;101958.34;30503388;28;97855;-69
2022/12/18 04:16:39;;;;;;;18.80;8.95;;;;;;;-4.95;74.44;101965.84;30501589;28;97579;-66
2022/12/18 04:31:39;;;;;;;10.90;7.50;;;;;;;-5.10;73.95;101988.66;30513803;28;96898;-65
2022/12/18 04:46:40;;;;;;;15.38;8.52;;;;;;;-5.31;73.94;101999.38;30617919;28;96740;-67
2022/12/18 05:01:40;;;;;;;22.25;8.77;;;;;;;-5.28;74.58;102020.09;30618548;28;96743;-66
2022/12/18 05:16:41;;;;;;;12.80;7.25;;;;;;;-5.48;73.63;102036.84;30615916;28;96811;-65
2022/12/18 05:31:41;;;;;;;18.15;8.15;;;;;;;-5.57;74.72;102038.72;30615262;28;97098;-65
2022/12/18 05:46:41;;;;;;;24.40;11.00;;;;;;;-5.55;74.31;102053.41;30614198;28;97080;-66
2022/12/18 06:01:43;;;;;;;21.00;11.27;;;;;;;-5.56;74.43;102072.47;30612700;28;97166;-66
2022/12/18 06:16:43;;;;;;;18.42;9.05;;;;;;;-5.65;74.36;102081.22;30610586;28;96704;-65
2022/12/18 06:31:43;;;;;;;26.60;9.95;;;;;;;-5.42;75.12;102105.19;30610055;28;96552;-65
2022/12/18 06:46:44;;;;;;;19.33;11.02;;;;;;;-5.44;74.59;102125.97;30608532;28;97138;-70
2022/12/18 07:01:44;;;;;;;22.50;12.57;;;;;;;-5.29;74.53;102136.19;30607626;28;96704;-67
2022/12/18 07:16:44;;;;;;;25.98;12.15;;;;;;;-5.22;74.19;102156.88;30624359;28;97582;-66
2022/12/18 07:31:45;;;;;;;28.85;13.50;;;;;;;-5.32;74.41;102164.78;30622552;28;96574;-68
2022/12/18 07:46:45;;;;;;;15.00;6.13;;;;;;;-5.20;73.69;102192.34;30622619;28;96713;-67
2022/12/18 08:01:46;;;;;;;8.55;5.35;;;;;;;-5.53;73.77;102189.28;30574005;28;96630;-70
2022/12/18 08:16:46;;;;;;;17.43;7.60;;;;;;;-5.42;74.03;102215.16;30619571;28;96795;-69
2022/12/18 08:31:46;;;;;;;16.40;11.05;;;;;;;-5.41;73.52;102231.56;30615622;28;96640;-67
2022/12/18 08:46:47;;;;;;;8.95;5.28;;;;;;;-5.05;73.42;102239.81;30573996;28;96765;-69
2022/12/18 09:01:48;;;;;;;12.38;8.07;;;;;;;-4.82;73.63;102250.78;30615872;28;97202;-68
2022/12/18 09:16:48;;;;;;;18.96;7.12;;;;;;;-4.71;72.21;102239.38;30613775;28;96997;-66
2022/12/18 09:31:49;;;;;;;13.40;7.97;;;;;;;-4.53;72.24;102204.44;30612896;28;96660;-68
2022/12/18 09:47:02;;;;;;;21.95;8.35;;;;;;;-4.18;72.74;102188.25;30601649;28;97159;-69
2022/12/18 10:02:21;;;;;;;15.80;10.23;;;;;;;-4.64;71.78;102187.22;30601963;28;96958;-68
2022/12/18 10:17:36;;;;;;;6.80;6.10;;;;;;;-4.80;71.62;102204.81;30598559;28;97392;-65
2022/12/18 10:32:37;;;;;;;16.40;8.50;;;;;;;-4.68;72.12;102210.72;30572951;28;96993;-67
2022/12/18 10:47:44;;;;;;;7.70;6.15;;;;;;;-4.73;71.94;102199.53;30557152;28;97002;-65
2022/12/18 11:02:44;;;;;;;23.65;11.35;;;;;;;-4.81;71.74;102210.91;30603997;28;97092;-68
2022/12/18 11:17:51;;;;;;;17.85;8.60;;;;;;;-4.73;71.98;102222.94;30535457;28;97401;-72
2022/12/18 11:33:03;;;;;;;31.20;12.88;;;;;;;-4.63;72.11;102237.53;30501912;28;96941;-76
2022/12/18 11:48:17;;;;;;;22.38;9.73;;;;;;;-4.33;71.30;102210.19;30492489;28;97804;-74
2022/12/18 12:03:22;;;;;;;18.50;10.20;;;;;;;-4.10;70.91;102195.91;30500020;28;96848;-71
2022/12/18 12:18:25;;;;;;;17.33;7.85;;;;;;;-4.19;70.68;102201.28;30493617;28;96968;-72
2022/12/18 12:33:39;;;;;;;15.05;9.57;;;;;;;-4.23;70.85;102194.44;30486479;28;97019;-70
2022/12/18 12:49:01;;;;;;;21.77;10.45;;;;;;;-3.70;70.35;102184.78;30496677;28;97288;-68
2022/12/18 13:04:24;;;;;;;11.00;5.60;;;;;;;-4.08;69.94;102208.00;30496800;28;97040;-66
2022/12/18 13:19:26;;;;;;;18.60;11.35;;;;;;;-4.53;69.85;102192.28;30603599;28;96682;-67
2022/12/18 13:34:30;;;;;;;12.65;5.72;;;;;;;-4.77;70.58;102191.78;30602796;28;97383;-67
2022/12/18 13:49:37;;;;;;;20.70;11.50;;;;;;;-4.99;71.33;102213.75;30599564;28;96842;-68
2022/12/18 14:04:37;;;;;;;19.52;10.52;;;;;;;-5.33;72.01;102225.44;30514770;28;97045;-66
2022/12/18 14:19:42;;;;;;;13.90;6.27;;;;;;;-5.48;72.14;102259.34;30491284;28;96665;-70
2022/12/18 14:34:48;;;;;;;16.13;8.27;;;;;;;-5.75;73.01;102266.56;30654754;28;96994;-65
2022/12/18 14:49:48;;;;;;;18.52;10.18;;;;;;;-5.80;73.35;102264.00;30687477;28;97412;-70
2022/12/18 15:05:16;;;;;;;29.63;12.53;;;;;;;-5.95;72.99;102274.50;30680743;28;96834;-69
2022/12/18 15:20:16;;;;;;;20.33;9.30;;;;;;;-6.13;73.76;102252.22;30631158;28;97948;-67
2022/12/18 15:35:18;;;;;;;6.17;5.57;;;;;;;-6.27;74.05;102269.59;30646391;28;97550;-68
2022/12/18 15:50:19;;;;;;;21.17;14.27;;;;;;;-6.60;74.14;102238.72;30687348;28;97386;-67
2022/12/18 16:05:21;;;;;;;9.60;6.87;;;;;;;-6.69;74.51;102210.25;30557735;28;97286;-67
2022/12/18 16:20:22;;;;;;;19.80;9.87;;;;;;;-6.80;74.62;102218.09;30520507;28;97073;-67
2022/12/18 16:35:24;;;;;;;17.43;9.37;;;;;;;-7.32;74.43;102206.25;30558649;28;97329;-70
2022/12/18 16:50:24;;;;;;;24.13;14.13;;;;;;;-7.76;75.03;102202.06;30563781;28;96796;-70
2022/12/18 17:05:24;;;;;;;24.50;14.17;;;;;;;-8.12;75.13;102209.03;30542071;28;97351;-74
2022/12/18 17:20:25;;;;;;;22.87;13.50;;;;;;;-8.37;75.54;102224.53;30537952;28;96753;-70
2022/12/18 17:35:25;;;;;;;27.47;16.23;;;;;;;-8.64;76.03;102215.06;30503079;28;97118;-67
2022/12/18 17:50:26;;;;;;;26.90;12.47;;;;;;;-8.78;76.52;102225.38;30511785;28;97289;-67
2022/12/18 18:05:26;;;;;;;13.83;12.00;;;;;;;-8.92;76.36;102223.63;30557402;28;97321;-73
2022/12/18 18:20:29;;;;;;;23.70;15.77;;;;;;;-8.97;76.85;102235.66;30523012;28;98168;-67
2022/12/18 18:35:29;;;;;;;42.03;18.23;;;;;;;-9.06;75.94;102200.34;30496497;28;98478;-67
2022/12/18 18:50:30;;;;;;;21.37;14.33;;;;;;;-9.13;76.81;102200.31;30599421;28;97163;-66
2022/12/18 19:05:31;;;;;;;27.70;17.13;;;;;;;-9.25;76.33;102217.47;30605949;28;97169;-66
2022/12/18 19:20:31;;;;;;;26.23;13.13;;;;;;;-9.33;77.36;102218.28;30615625;28;96842;-68
2022/12/18 19:35:32;;;;;;;25.37;13.80;;;;;;;-9.34;76.82;102208.84;30613808;28;97314;-73
2022/12/18 19:50:33;;;;;;;34.27;16.37;;;;;;;-9.41;76.72;102185.56;30494774;28;97251;-71
2022/12/18 20:05:34;;;;;;;30.33;20.37;;;;;;;-9.46;76.96;102181.25;30491494;28;96760;-64
2022/12/18 20:20:36;;;;;;;33.97;16.53;;;;;;;-9.47;77.41;102179.50;30491994;28;97474;-67
2022/12/18 20:35:36;;;;;;;22.07;14.83;;;;;;;-9.50;76.96;102179.50;30614958;28;96952;-69
2022/12/18 20:50:37;;;;;;;12.50;11.30;;;;;;;-9.54;76.91;102178.63;30611918;28;96785;-68
2022/12/18 21:05:37;;;;;;;26.43;17.80;;;;;;;-9.62;76.83;102167.41;30566767;28;97385;-72
2022/12/18 21:20:37;;;;;;;16.23;10.13;;;;;;;-9.75;77.45;102185.41;30578366;28;97117;-75
2022/12/18 21:35:38;;;;;;;9.23;8.43;;;;;;;-9.81;76.93;102184.50;30612767;28;97667;-67
2022/12/18 21:50:38;;;;;;;21.80;12.17;;;;;;;-9.83;77.52;102157.84;30608805;28;96626;-67
2022/12/18 22:05:39;;;;;;;15.60;9.37;;;;;;;-9.78;76.84;102120.06;30608070;28;97083;-70
2022/12/18 22:20:39;;;;;;;9.10;8.03;;;;;;;-9.80;77.86;102108.84;30608656;28;97311;-69
2022/12/18 22:35:40;;;;;;;21.87;8.23;;;;;;;-9.72;77.13;102097.72;30613397;28;96702;-70
2022/12/18 22:50:40;;;;;;;29.60;18.07;;;;;;;-9.62;77.03;102080.56;30631526;28;97111;-72
2022/12/18 23:05:41;;;;;;;15.20;9.27;;;;;;;-9.72;76.85;102055.56;30628246;28;97196;-71
2022/12/18 23:20:41;;;;;;;36.03;21.17;;;;;;;-9.86;77.45;102048.66;30628153;28;96786;-76
2022/12/18 23:35:41;;;;;;;24.33;17.17;;;;;;;-9.93;77.61;102041.75;30626633;28;96727;-69
2022/12/18 23:50:42;;;;;;;29.03;13.17;;;;;;;-10.06;76.38;102014.19;30623898;28;96787;-70
